createdAt,value
2019-04-29T00:02:11.805Z,91.90
2019-04-29T00:04:41.097Z,91.60
2019-04-29T00:07:10.369Z,91.40
2019-04-29T00:09:40.019Z,91.70
2019-04-29T00:12:09.357Z,91.60
2019-04-29T00:14:58.390Z,91.60
2019-04-29T00:17:47.680Z,91.70
2019-04-29T00:20:27.733Z,92.50
2019-04-29T00:22:56.997Z,92.10
2019-04-29T00:25:26.279Z,92.00
2019-04-29T00:27:55.810Z,91.90
2019-04-29T00:30:25.366Z,91.50
2019-04-29T00:32:54.924Z,91.70
2019-04-29T00:35:24.257Z,92.00
2019-04-29T00:37:58.154Z,92.10
2019-04-29T00:40:45.304Z,92.60
2019-04-29T00:43:25.403Z,92.30
2019-04-29T00:45:54.677Z,92.20
2019-04-29T00:48:23.959Z,92.30
2019-04-29T00:50:53.513Z,92.30
2019-04-29T00:53:22.953Z,92.00
2019-04-29T00:55:52.501Z,92.20
2019-04-29T00:58:22.741Z,91.90
2019-04-29T01:00:52.462Z,91.70
2019-04-29T01:03:21.773Z,91.70
2019-04-29T01:05:51.369Z,92.00
2019-04-29T01:08:20.633Z,92.00
2019-04-29T01:10:50.182Z,92.20
2019-04-29T01:13:19.454Z,92.50
2019-04-29T01:15:48.716Z,92.50
2019-04-29T01:18:18.286Z,92.20
2019-04-29T01:20:47.549Z,92.50
2019-04-29T01:23:16.823Z,92.60
2019-04-29T01:25:48.025Z,92.60
2019-04-29T01:28:25.223Z,92.50
2019-04-29T01:31:01.409Z,92.30
2019-04-29T01:33:30.709Z,92.20
2019-04-29T01:36:16.446Z,92.60
2019-04-29T01:38:48.883Z,92.60
2019-04-29T01:41:32.182Z,92.40
2019-04-29T01:44:03.258Z,93.10
2019-04-29T01:46:32.832Z,92.90
2019-04-29T01:49:02.213Z,92.50
2019-04-29T01:51:31.485Z,92.60
2019-04-29T01:54:00.772Z,92.60
2019-04-29T01:56:30.025Z,93.30
2019-04-29T01:58:59.352Z,93.00
2019-04-29T02:01:28.622Z,92.90
2019-04-29T02:03:57.892Z,92.80
2019-04-29T02:06:27.330Z,93.00
2019-04-29T02:08:57.348Z,93.30
2019-04-29T02:11:26.614Z,93.60
2019-04-29T02:13:56.149Z,93.40
2019-04-29T02:16:25.657Z,93.10
2019-04-29T02:18:55.161Z,93.50
2019-04-29T02:21:24.425Z,93.40
2019-04-29T02:23:55.607Z,93.00
2019-04-29T02:26:24.869Z,93.30
2019-04-29T02:28:54.157Z,93.10
2019-04-29T02:31:38.672Z,92.80
2019-04-29T02:34:08.281Z,92.40
2019-04-29T02:36:38.554Z,92.70
2019-04-29T02:39:17.005Z,92.60
2019-04-29T02:41:53.890Z,93.00
2019-04-29T02:44:23.401Z,93.30
2019-04-29T02:46:53.754Z,93.50
2019-04-29T02:49:23.086Z,93.40
2019-04-29T02:51:53.233Z,93.30
2019-04-29T02:54:24.598Z,93.40
2019-04-29T02:57:01.621Z,93.40
2019-04-29T02:59:44.782Z,93.20
2019-04-29T03:02:24.470Z,92.90
2019-04-29T03:05:11.317Z,93.10
2019-04-29T03:07:40.994Z,93.20
2019-04-29T03:10:10.805Z,93.40
2019-04-29T03:12:40.495Z,93.60
2019-04-29T03:15:10.109Z,93.60
2019-04-29T03:17:39.450Z,93.60
2019-04-29T03:20:19.606Z,93.90
2019-04-29T03:22:50.444Z,93.40
2019-04-29T03:25:19.703Z,93.20
2019-04-29T03:27:49.049Z,93.20
2019-04-29T03:30:18.501Z,93.00
2019-04-29T03:32:47.765Z,93.20
2019-04-29T03:35:17.031Z,94.00
2019-04-29T03:37:47.366Z,93.90
2019-04-29T03:40:16.649Z,93.60
2019-04-29T03:42:45.909Z,94.20
2019-04-29T03:45:15.435Z,93.70
2019-04-29T03:47:44.862Z,93.70
2019-04-29T03:50:14.459Z,94.10
2019-04-29T03:52:43.748Z,93.60
2019-04-29T03:55:13.095Z,93.50
2019-04-29T03:57:42.353Z,93.10
2019-04-29T04:00:13.802Z,93.60
2019-04-29T04:02:47.661Z,93.50
2019-04-29T04:05:24.294Z,93.60
2019-04-29T04:08:11.708Z,93.40
2019-04-29T04:10:40.979Z,93.50
2019-04-29T04:13:10.510Z,93.60
2019-04-29T04:15:40.124Z,93.80
2019-04-29T04:18:17.338Z,93.70
2019-04-29T04:20:46.913Z,93.80
2019-04-29T04:23:16.427Z,93.90
2019-04-29T04:25:45.714Z,93.90
2019-04-29T04:28:15.045Z,94.20
2019-04-29T04:30:44.316Z,94.40
2019-04-29T04:33:13.830Z,94.20
2019-04-29T04:35:43.340Z,94.30
2019-04-29T04:38:12.846Z,94.60
2019-04-29T04:40:58.821Z,94.60
2019-04-29T04:43:28.105Z,94.60
2019-04-29T04:45:57.388Z,94.40
2019-04-29T04:48:26.725Z,94.20
2019-04-29T04:50:56.084Z,94.50
2019-04-29T04:53:25.358Z,94.60
2019-04-29T04:55:56.258Z,94.50
2019-04-29T04:58:25.529Z,95.60
2019-04-29T05:00:55.086Z,95.60
2019-04-29T05:03:24.350Z,95.50
2019-04-29T05:05:53.618Z,95.70
2019-04-29T05:08:22.905Z,96.00
2019-04-29T05:10:52.169Z,95.90
2019-04-29T05:13:28.438Z,95.80
2019-04-29T05:15:52.729Z,96.00
2019-04-29T05:18:22.010Z,96.10
2019-04-29T05:20:52.344Z,96.60
2019-04-29T05:23:21.962Z,97.00
2019-04-29T05:25:51.296Z,97.20
2019-04-29T05:28:20.569Z,96.90
2019-04-29T05:30:49.846Z,97.10
2019-04-29T05:33:19.117Z,97.30
2019-04-29T05:35:50.031Z,96.70
2019-04-29T05:38:23.600Z,96.90
2019-04-29T05:40:56.456Z,97.20
2019-04-29T05:43:27.075Z,97.80
2019-04-29T05:46:07.891Z,98.20
2019-04-29T05:48:37.606Z,98.40
2019-04-29T05:51:08.586Z,99.10
2019-04-29T05:53:42.257Z,99.90
2019-04-29T05:56:11.533Z,99.70
2019-04-29T05:58:40.812Z,99.90
2019-04-29T06:01:11.727Z,99.90
2019-04-29T06:03:44.173Z,99.90
2019-04-29T06:06:12.351Z,99.90
2019-04-29T06:08:42.149Z,99.70
2019-04-29T06:11:11.431Z,98.40
2019-04-29T06:13:40.709Z,97.90
2019-04-29T06:16:09.981Z,96.40
2019-04-29T06:18:40.883Z,94.80
2019-04-29T06:21:10.426Z,92.00
2019-04-29T06:23:39.805Z,92.20
2019-04-29T06:26:09.510Z,92.90
2019-04-29T06:28:39.120Z,91.90
2019-04-29T06:31:08.409Z,89.50
2019-04-29T06:33:37.693Z,89.30
2019-04-29T06:36:07.214Z,89.40
2019-04-29T06:38:36.498Z,85.80
2019-04-29T06:41:09.718Z,83.90
2019-04-29T06:43:37.069Z,84.80
2019-04-29T06:46:06.356Z,83.90
2019-04-29T06:48:35.639Z,84.20
2019-04-29T06:51:05.098Z,83.70
2019-04-29T06:53:34.685Z,81.30
2019-04-29T06:56:04.310Z,81.20
2019-04-29T06:58:36.707Z,81.70
2019-04-29T07:01:05.644Z,81.00
2019-04-29T07:03:35.097Z,80.30
2019-04-29T07:06:04.625Z,80.20
2019-04-29T07:08:33.905Z,80.60
2019-04-29T07:11:03.194Z,79.60
2019-04-29T07:13:32.479Z,79.20
2019-04-29T07:16:01.769Z,79.10
2019-04-29T07:18:31.065Z,77.60
2019-04-29T07:21:00.364Z,77.10
2019-04-29T07:23:29.645Z,76.70
2019-04-29T07:25:59.185Z,76.70
2019-04-29T07:28:29.982Z,76.20
2019-04-29T07:31:01.551Z,76.50
2019-04-29T07:33:30.490Z,76.20
2019-04-29T07:36:10.329Z,75.70
2019-04-29T07:38:41.258Z,74.60
2019-04-29T07:41:02.001Z,75.20
2019-04-29T07:43:31.276Z,74.70
2019-04-29T07:46:05.566Z,74.10
2019-04-29T07:48:36.901Z,74.90
2019-04-29T07:51:06.218Z,74.50
2019-04-29T07:53:44.720Z,73.40
2019-04-29T07:56:08.107Z,73.20
2019-04-29T07:58:37.549Z,73.70
2019-04-29T08:01:07.318Z,74.70
2019-04-29T08:03:36.922Z,75.40
2019-04-29T08:06:06.212Z,74.40
2019-04-29T08:08:35.724Z,73.10
2019-04-29T08:11:05.339Z,73.20
2019-04-29T08:13:34.749Z,73.60
2019-04-29T08:16:04.054Z,71.60
2019-04-29T08:18:33.649Z,71.80
2019-04-29T08:21:03.257Z,73.30
2019-04-29T08:23:38.546Z,71.90
2019-04-29T08:26:04.552Z,73.30
2019-04-29T08:28:33.978Z,73.40
2019-04-29T08:31:03.257Z,72.10
2019-04-29T08:33:32.834Z,74.10
2019-04-29T08:36:02.277Z,73.80
2019-04-29T08:38:32.529Z,75.20
2019-04-29T08:41:01.809Z,72.90
2019-04-29T08:43:44.981Z,72.70
2019-04-29T08:46:15.952Z,71.10
2019-04-29T08:48:45.975Z,70.10
2019-04-29T08:51:15.384Z,70.60
2019-04-29T08:53:44.678Z,70.20
2019-04-29T08:56:13.949Z,72.70
2019-04-29T08:58:44.075Z,72.00
2019-04-29T09:01:14.816Z,72.40
2019-04-29T09:03:45.165Z,72.40
2019-04-29T09:06:14.440Z,72.90
2019-04-29T09:08:54.570Z,73.70
2019-04-29T09:11:14.802Z,72.20
2019-04-29T09:13:44.094Z,73.30
2019-04-29T09:16:13.361Z,70.30
2019-04-29T09:18:42.645Z,70.10
2019-04-29T09:21:11.923Z,69.10
2019-04-29T09:23:41.205Z,69.60
2019-04-29T09:26:17.877Z,70.60
2019-04-29T09:28:49.808Z,70.80
2019-04-29T09:31:18.609Z,70.70
2019-04-29T09:33:49.142Z,70.70
2019-04-29T09:36:18.861Z,69.70
2019-04-29T09:38:48.146Z,67.80
2019-04-29T09:41:34.989Z,67.50
2019-04-29T09:44:20.929Z,67.50
2019-04-29T09:46:50.203Z,67.10
2019-04-29T09:49:19.480Z,67.10
2019-04-29T09:51:48.759Z,67.90
2019-04-29T09:54:18.354Z,68.30
2019-04-29T09:56:47.629Z,66.10
2019-04-29T09:59:30.780Z,65.20
2019-04-29T10:02:10.317Z,64.20
2019-04-29T10:04:57.301Z,66.30
2019-04-29T10:07:26.585Z,66.50
2019-04-29T10:09:57.535Z,66.30
2019-04-29T10:12:27.085Z,63.90
2019-04-29T10:14:56.357Z,64.80
2019-04-29T10:17:33.086Z,64.60
2019-04-29T10:20:04.440Z,65.20
2019-04-29T10:22:34.863Z,66.10
2019-04-29T10:25:06.553Z,66.80
2019-04-29T10:27:35.898Z,66.40
2019-04-29T10:30:09.407Z,65.80
2019-04-29T10:32:42.503Z,65.00
2019-04-29T10:35:11.586Z,65.80
2019-04-29T10:37:41.023Z,65.50
2019-04-29T10:40:12.280Z,65.20
2019-04-29T10:42:45.668Z,65.40
2019-04-29T10:45:28.293Z,65.00
2019-04-29T10:48:15.442Z,64.90
2019-04-29T10:50:47.164Z,64.20
2019-04-29T10:53:17.610Z,63.80
2019-04-29T10:55:46.950Z,64.90
2019-04-29T10:58:21.895Z,63.30
2019-04-29T11:00:58.470Z,64.90
2019-04-29T11:03:28.921Z,62.70
2019-04-29T11:06:01.809Z,63.20
2019-04-29T11:08:39.780Z,63.70
2019-04-29T11:11:22.133Z,62.90
2019-04-29T11:13:47.014Z,66.10
2019-04-29T11:16:14.018Z,63.20
2019-04-29T11:18:43.297Z,62.60
2019-04-29T11:21:12.750Z,63.00
2019-04-29T11:23:43.681Z,63.00
2019-04-29T11:26:20.029Z,62.90
2019-04-29T11:28:51.175Z,62.60
2019-04-29T11:31:20.461Z,64.10
2019-04-29T11:33:51.389Z,63.60
2019-04-29T11:36:22.296Z,64.10
2019-04-29T11:38:51.857Z,64.50
2019-04-29T11:41:21.373Z,64.10
2019-04-29T11:43:51.512Z,63.70
2019-04-29T11:46:22.806Z,63.70
2019-04-29T11:48:53.801Z,64.20
2019-04-29T11:51:34.063Z,62.30
2019-04-29T11:54:01.737Z,63.10
2019-04-29T11:56:31.709Z,63.10
2019-04-29T11:59:08.611Z,63.30
2019-04-29T12:01:47.141Z,62.20
2019-04-29T12:04:34.701Z,62.00
2019-04-29T12:07:04.744Z,62.30
2019-04-29T12:09:34.896Z,61.60
2019-04-29T12:12:07.797Z,61.90
2019-04-29T12:14:41.141Z,62.80
2019-04-29T12:17:28.248Z,61.40
2019-04-29T12:20:02.069Z,61.10
2019-04-29T12:22:41.440Z,62.60
2019-04-29T12:25:06.519Z,61.90
2019-04-29T12:27:36.072Z,62.90
2019-04-29T12:30:09.525Z,62.90
2019-04-29T12:32:43.411Z,63.80
2019-04-29T12:35:16.727Z,63.40
2019-04-29T12:38:05.519Z,62.80
2019-04-29T12:40:38.896Z,62.40
2019-04-29T12:43:26.273Z,62.60
2019-04-29T12:46:02.988Z,62.80
2019-04-29T12:48:32.314Z,63.50
2019-04-29T12:51:01.599Z,63.70
2019-04-29T12:53:30.877Z,63.30
2019-04-29T12:56:00.492Z,63.20
2019-04-29T12:58:29.778Z,62.90
2019-04-29T13:01:05.680Z,63.60
2019-04-29T13:03:39.789Z,63.20
2019-04-29T13:06:09.796Z,63.70
2019-04-29T13:08:55.738Z,63.10
2019-04-29T13:11:37.526Z,63.50
2019-04-29T13:14:01.694Z,63.90
2019-04-29T13:16:36.885Z,62.70
2019-04-29T13:19:12.344Z,63.80
2019-04-29T13:21:39.638Z,64.30
2019-04-29T13:24:22.058Z,65.10
2019-04-29T13:26:42.830Z,64.00
2019-04-29T13:29:25.862Z,62.50
2019-04-29T13:31:42.115Z,62.60
2019-04-29T13:34:23.558Z,63.40
2019-04-29T13:36:44.165Z,63.30
2019-04-29T13:39:14.010Z,63.70
2019-04-29T13:41:57.085Z,61.50
2019-04-29T13:44:19.287Z,62.00
2019-04-29T13:46:51.042Z,62.10
2019-04-29T13:49:35.993Z,63.60
2019-04-29T13:52:06.733Z,63.00
2019-04-29T13:54:37.354Z,64.00
2019-04-29T13:57:15.626Z,63.30
2019-04-29T13:59:49.200Z,63.50
2019-04-29T14:02:33.591Z,63.80
2019-04-29T14:05:05.617Z,65.00
2019-04-29T14:07:35.197Z,63.70
2019-04-29T14:10:10.150Z,63.60
2019-04-29T14:13:09.159Z,62.90
2019-04-29T14:15:10.261Z,63.50
2019-04-29T14:17:39.795Z,64.30
2019-04-29T14:20:15.233Z,64.30
2019-04-29T14:22:41.376Z,64.10
2019-04-29T14:25:13.643Z,64.80
2019-04-29T14:27:43.108Z,64.50
2019-04-29T14:30:15.370Z,64.80
2019-04-29T14:32:46.940Z,65.10
2019-04-29T14:35:20.901Z,64.60
2019-04-29T14:37:55.243Z,65.10
2019-04-29T14:40:21.521Z,64.30
2019-04-29T14:42:58.088Z,64.70
2019-04-29T14:45:28.072Z,65.00
2019-04-29T14:48:24.062Z,64.60
2019-04-29T14:50:54.203Z,63.20
2019-04-29T14:53:24.433Z,63.30
2019-04-29T14:55:55.749Z,63.80
2019-04-29T14:58:25.325Z,63.90
2019-04-29T15:00:56.254Z,64.60
2019-04-29T15:03:29.864Z,63.90
2019-04-29T15:05:59.155Z,63.40
2019-04-29T15:08:31.951Z,63.30
2019-04-29T15:10:59.422Z,63.30
2019-04-29T15:13:28.807Z,63.00
2019-04-29T15:16:04.610Z,63.80
2019-04-29T15:18:47.403Z,63.60
2019-04-29T15:21:11.157Z,63.60
2019-04-29T15:23:40.456Z,63.30
2019-04-29T15:26:09.817Z,63.10
2019-04-29T15:28:51.346Z,63.70
2019-04-29T15:31:21.977Z,63.20
2019-04-29T15:33:53.111Z,63.50
2019-04-29T15:36:22.397Z,64.40
2019-04-29T15:39:07.885Z,64.00
2019-04-29T15:41:29.488Z,64.10
2019-04-29T15:44:06.542Z,64.50
2019-04-29T15:46:25.186Z,65.50
2019-04-29T15:48:54.460Z,65.90
2019-04-29T15:51:24.053Z,65.80
2019-04-29T15:53:54.490Z,65.10
2019-04-29T15:56:28.726Z,65.40
2019-04-29T15:58:59.602Z,65.70
2019-04-29T16:01:27.849Z,65.60
2019-04-29T16:04:00.081Z,65.80
2019-04-29T16:06:47.650Z,65.80
2019-04-29T16:09:18.748Z,65.80
2019-04-29T16:12:05.059Z,65.90
2019-04-29T16:14:32.757Z,66.50
2019-04-29T16:17:02.041Z,66.10
2019-04-29T16:19:31.327Z,66.70
2019-04-29T16:22:00.616Z,67.40
2019-04-29T16:24:37.681Z,67.60
2019-04-29T16:29:31.945Z,68.90
2019-04-29T16:32:04.893Z,68.70
2019-04-29T16:34:37.605Z,69.60
2019-04-29T16:37:03.818Z,69.80
2019-04-29T16:39:33.569Z,70.90
2019-04-29T16:42:22.708Z,70.50
2019-04-29T16:44:52.965Z,70.80
2019-04-29T16:47:22.639Z,70.10
2019-04-29T16:49:51.913Z,70.60
2019-04-29T16:52:21.205Z,70.40
2019-04-29T16:54:50.482Z,70.40
2019-04-29T16:57:19.981Z,71.00
2019-04-29T16:59:49.523Z,71.70
2019-04-29T17:02:19.807Z,72.10
2019-04-29T17:04:49.467Z,72.40
2019-04-29T17:07:20.033Z,72.50
2019-04-29T17:09:51.545Z,72.90
2019-04-29T17:12:21.117Z,73.00
2019-04-29T17:15:03.796Z,73.40
2019-04-29T17:17:28.829Z,74.00
2019-04-29T17:19:54.573Z,74.90
2019-04-29T17:22:26.859Z,74.30
2019-04-29T17:24:55.438Z,75.50
2019-04-29T17:27:29.017Z,78.40
2019-04-29T17:30:15.977Z,77.70
2019-04-29T17:32:48.852Z,77.60
2019-04-29T17:35:15.682Z,68.10
2019-04-29T17:35:21.846Z,78.20
2019-04-29T17:37:50.581Z,78.90
2019-04-29T17:40:21.082Z,79.20
2019-04-29T17:42:52.245Z,78.70
2019-04-29T17:45:30.615Z,79.30
2019-04-29T17:47:58.709Z,78.00
2019-04-29T17:50:39.159Z,78.90
2019-04-29T17:53:08.530Z,79.60
2019-04-29T17:55:40.980Z,80.70
2019-04-29T17:58:19.736Z,80.20
2019-04-29T18:00:58.293Z,80.80
2019-04-29T18:03:29.910Z,80.90
2019-04-29T18:06:09.610Z,79.60
2019-04-29T18:08:49.793Z,80.00
2019-04-29T18:11:19.069Z,81.10
2019-04-29T18:13:48.350Z,81.80
2019-04-29T18:16:25.885Z,81.00
2019-04-29T18:18:57.667Z,80.70
2019-04-29T18:21:43.447Z,80.20
2019-04-29T18:24:19.545Z,80.10
2019-04-29T18:26:52.723Z,79.50
2019-04-29T18:29:21.571Z,80.10
2019-04-29T18:31:50.858Z,80.50
2019-04-29T18:34:20.198Z,80.50
2019-04-29T18:36:49.801Z,80.80
2019-04-29T18:39:26.856Z,81.30
2019-04-29T18:41:52.295Z,80.90
2019-04-29T18:44:21.619Z,81.30
2019-04-29T18:46:53.845Z,81.20
2019-04-29T18:49:22.233Z,81.10
2019-04-29T18:51:51.857Z,81.70
2019-04-29T18:54:21.129Z,81.20
2019-04-29T18:56:50.474Z,81.70
2019-04-29T18:59:25.287Z,81.90
2019-04-29T19:01:51.041Z,82.10
2019-04-29T19:04:25.486Z,82.00
2019-04-29T19:06:59.141Z,82.30
2019-04-29T19:09:32.089Z,82.30
2019-04-29T19:11:59.164Z,82.30
2019-04-29T19:14:28.772Z,82.40
2019-04-29T19:17:01.260Z,83.00
2019-04-29T19:19:30.867Z,83.20
2019-04-29T19:22:00.683Z,83.40
2019-04-29T19:24:31.498Z,84.00
2019-04-29T19:27:02.526Z,84.00
2019-04-29T19:29:32.235Z,84.60
2019-04-29T19:32:01.520Z,84.50
2019-04-29T19:34:42.262Z,84.50
2019-04-29T19:37:01.854Z,84.60
2019-04-29T19:39:31.129Z,85.10
2019-04-29T19:42:00.706Z,84.80
2019-04-29T19:44:33.331Z,85.00
2019-04-29T19:47:01.638Z,85.00
2019-04-29T19:49:30.917Z,85.30
2019-04-29T19:52:00.214Z,85.60
2019-04-29T19:54:29.486Z,85.60
2019-04-29T19:57:03.585Z,85.80
2019-04-29T19:59:30.384Z,86.00
2019-04-29T20:02:05.833Z,86.10
2019-04-29T20:04:32.966Z,86.50
2019-04-29T20:07:07.198Z,87.00
2019-04-29T20:09:35.010Z,87.00
2019-04-29T20:12:12.675Z,86.90
2019-04-29T20:14:37.266Z,86.80
2019-04-29T20:17:18.472Z,87.00
2019-04-29T20:19:55.242Z,87.10
2019-04-29T20:22:20.765Z,87.10
2019-04-29T20:24:50.920Z,87.10
2019-04-29T20:27:21.490Z,87.30
2019-04-29T20:29:51.139Z,86.90
2019-04-29T20:32:22.296Z,87.10
2019-04-29T20:34:52.416Z,87.20
2019-04-29T20:37:21.937Z,87.10
2019-04-29T20:39:52.212Z,87.40
2019-04-29T20:42:22.785Z,87.60
2019-04-29T20:44:52.286Z,87.60
2019-04-29T20:47:23.653Z,87.60
2019-04-29T20:49:52.719Z,88.00
2019-04-29T20:52:25.802Z,87.80
2019-04-29T20:55:00.449Z,88.20
2019-04-29T20:57:27.724Z,88.50
2019-04-29T20:59:56.982Z,88.90
2019-04-29T21:02:31.279Z,89.00
2019-04-29T21:04:58.191Z,89.40
2019-04-29T21:07:29.061Z,89.60
2019-04-29T21:09:59.885Z,89.70
2019-04-29T21:12:34.746Z,89.90
2019-04-29T21:15:20.517Z,90.30
2019-04-29T21:17:49.800Z,90.60
2019-04-29T21:20:19.326Z,91.00
2019-04-29T21:22:52.407Z,91.30
2019-04-29T21:25:19.584Z,91.50
2019-04-29T21:27:52.593Z,91.60
2019-04-29T21:30:20.137Z,92.20
2019-04-29T21:32:49.554Z,92.30
2019-04-29T21:35:20.638Z,92.50
2019-04-29T21:38:08.182Z,92.40
2019-04-29T21:40:41.989Z,92.00
2019-04-29T21:43:13.950Z,91.30
2019-04-29T21:45:48.278Z,91.10
2019-04-29T21:48:15.568Z,91.20
2019-04-29T21:50:44.981Z,91.50
2019-04-29T21:53:15.102Z,90.80
2019-04-29T21:55:45.805Z,90.30
2019-04-29T21:58:15.225Z,90.30
2019-04-29T22:00:45.480Z,90.10
2019-04-29T22:03:19.734Z,90.00
2019-04-29T22:05:49.273Z,90.20
2019-04-29T22:08:20.368Z,90.30
2019-04-29T22:10:50.024Z,90.40
2019-04-29T22:13:19.309Z,90.60
2019-04-29T22:15:48.894Z,90.80
2019-04-29T22:18:18.256Z,91.10
2019-04-29T22:20:48.608Z,90.70
2019-04-29T22:23:18.409Z,90.80
2019-04-29T22:25:47.694Z,90.60
2019-04-29T22:28:19.776Z,91.00
2019-04-29T22:30:49.889Z,91.20
2019-04-29T22:33:19.308Z,91.20
2019-04-29T22:35:48.592Z,91.20
2019-04-29T22:38:18.699Z,91.10
2019-04-29T22:40:49.014Z,91.80
2019-04-29T22:43:32.197Z,91.90
2019-04-29T22:46:04.872Z,92.30
2019-04-29T22:48:34.842Z,92.70
2019-04-29T22:51:10.017Z,93.00
2019-04-29T22:53:40.055Z,93.00
2019-04-29T22:56:08.997Z,93.30
2019-04-29T22:58:43.445Z,93.40
2019-04-29T23:01:10.645Z,93.50
2019-04-29T23:03:40.006Z,93.40
2019-04-29T23:06:10.249Z,93.40
2019-04-29T23:08:39.541Z,93.50
2019-04-29T23:11:09.149Z,93.80
2019-04-29T23:13:38.506Z,93.80
2019-04-29T23:16:07.780Z,93.40
2019-04-29T23:18:42.207Z,93.30
2019-04-29T23:21:16.489Z,93.50
2019-04-29T23:23:47.599Z,92.80
2019-04-29T23:26:17.141Z,92.80
2019-04-29T23:28:47.568Z,92.70
2019-04-29T23:31:17.036Z,92.60
2019-04-29T23:33:46.581Z,92.40
2019-04-29T23:36:16.127Z,92.40
2019-04-29T23:38:45.452Z,91.80
2019-04-29T23:41:15.332Z,91.40
2019-04-29T23:43:45.621Z,91.60
2019-04-29T23:46:16.119Z,91.50
2019-04-29T23:48:46.796Z,90.90
2019-04-29T23:51:17.193Z,91.00
2019-04-29T23:53:46.482Z,91.00
2019-04-29T23:56:15.936Z,90.80
2019-04-29T23:58:55.969Z,90.70
